Wilson Gaeta — 8PTS — position and weather

sailwx.info

Track history (hours):
 
Tides and Currents Weather Stations Pressure Air Temp Water Temp Dewpoint Dewpoint Depression Visibility Wind Speed Wind Dir Waves Ship Positions

Wilson Gaeta

Last reported at 2016-Dec-07 19:33 UTC. Time now 2016-Dec-07 20:23 UTC.
Position N 52°00' E 004°01'.

Length 88 m; draft 5.4 m.

Type: Ship. MMSI: 314237000.

Date/timePositionNaut miles runAvg speedWind from/ knotsBaromVisibWave heightAir tempDewpointWater temp
2016-Dec-07 19:33N 52°00' E 004°01'4 4.1
2016-Dec-07 18:33N 51°57' E 004°05'0 0.1
2016-Dec-07 17:33N 51°57' E 004°05'0 0.0
2016-Dec-07 16:30N 51°57' E 004°05'0 0.0
2016-Dec-07 15:34N 51°57' E 004°05'0 0.0
2016-Dec-07 14:33N 51°57' E 004°05'0 0.0
2016-Dec-07 13:33N 51°57' E 004°05'0 0.0
2016-Dec-07 12:33N 51°57' E 004°05'0 0.0
2016-Dec-07 11:33N 51°57' E 004°05'0 0.0
2016-Dec-07 10:33N 51°57' E 004°05'0 0.0
2016-Dec-07 09:33N 51°57' E 004°05'0 0.0
2016-Dec-07 08:33N 51°57' E 004°05'0 0.0
2016-Dec-07 07:33N 51°57' E 004°05'0 0.0
2016-Dec-07 06:33N 51°57' E 004°05'0 0.0
2016-Dec-07 05:33N 51°57' E 004°05'0 0.0
2016-Dec-07 04:33N 51°57' E 004°05'5 4.6
2016-Dec-07 03:34N 51°56' E 004°12'1010.1
2016-Dec-07 02:34N 51°50' E 004°25'8 8.4
2016-Dec-07 01:34N 51°48' E 004°38'0 0.0
2016-Dec-07 00:33N 51°48' E 004°38'0 0.0
2016-Dec-06 23:33N 51°48' E 004°38'0 0.0
2016-Dec-06 22:33N 51°48' E 004°38'0 0.0
2016-Dec-06 21:34N 51°48' E 004°38'0 0.0
2016-Dec-06 20:34N 51°48' E 004°38'0 0.0
2016-Dec-06 18:34N 51°48' E 004°38'0 0.0
2016-Dec-06 17:34N 51°48' E 004°38'0 0.0
2016-Dec-06 16:34N 51°48' E 004°38'0 0.0
2016-Dec-06 15:33N 51°48' E 004°38'0 0.0
2016-Dec-06 14:34N 51°48' E 004°38'0 0.0
2016-Dec-06 13:34N 51°48' E 004°38'0 0.0
2016-Dec-06 12:34N 51°48' E 004°38'0 0.0
2016-Dec-06 11:34N 51°48' E 004°38'0 0.0
2016-Dec-06 10:33N 51°48' E 004°38'0 0.0
2016-Dec-06 09:34N 51°48' E 004°38'0 0.2
2016-Dec-06 08:34N 51°48' E 004°38'7 7.0
2016-Dec-06 07:34N 51°50' E 004°27'10 9.5
2016-Dec-06 06:33N 51°55' E 004°14'1010.5
2016-Dec-06 05:34N 51°60' E 003°59'8 8.4
2016-Dec-06 04:34N 52°04' E 003°47'9 8.9
2016-Dec-06 03:33N 52°13' E 003°46'11 9.8
2016-Dec-06 02:27N 52°23' E 003°48'1110.1
2016-Dec-06 01:22N 52°34' E 003°52'910.2
2016-Dec-06 00:31N 52°43' E 003°55'1210.6
2016-Dec-05 23:23N 52°54' E 003°59'8 9.8
2016-Dec-05 22:33N 53°01' E 004°07'10 9.7
2016-Dec-05 21:34N 53°07' E 004°20'9 8.9
2016-Dec-05 20:33N 53°14' E 004°28'9 8.7
2016-Dec-05 19:33N 53°22' E 004°34'9 8.9
2016-Dec-05 18:32N 53°29' E 004°44'1110.6
2016-Dec-05 17:31N 53°34' E 005°01'4310.9
2016-Dec-05 13:31N 53°47' E 006°10'22 9.3
2016-Dec-05 11:12N 53°53' E 006°45'6 9.2
2016-Dec-05 10:30N 53°55' E 006°56'9 9.4
2016-Dec-05 09:33N 53°57' E 007°10'1410.3
2016-Dec-05 08:09N 54°00' E 007°34'710.8
2016-Dec-05 07:33N 54°02' E 007°45'1111.0
2016-Dec-05 06:33N 54°01' E 008°04'1212.0
2016-Dec-05 05:33N 53°60' E 008°24'1111.2
2016-Dec-05 04:33N 53°55' E 008°41'8 8.3
2016-Dec-05 03:33N 53°51' E 008°53'8 7.9
2016-Dec-05 02:34N 53°53' E 009°06'7 7.1
2016-Dec-05 01:34N 53°52' E 009°18'8 8.1
2016-Dec-05 00:33N 53°45' E 009°25'7 6.3
2016-Dec-04 23:31N 53°39' E 009°31'0 0.0
2016-Dec-04 22:31N 53°39' E 009°31'0 0.0
2016-Dec-04 21:31N 53°39' E 009°31'0 0.0
2016-Dec-04 20:31N 53°39' E 009°31'0 0.0
2016-Dec-04 19:31N 53°39' E 009°31'0 0.0
2016-Dec-04 18:31N 53°39' E 009°31'0 0.0
2016-Dec-04 17:31N 53°39' E 009°31'0 0.0
2016-Dec-04 16:31N 53°39' E 009°31'0 0.0
2016-Dec-04 15:31N 53°39' E 009°31'0 0.0
2016-Dec-04 14:31N 53°39' E 009°31'0 0.0
2016-Dec-04 13:31N 53°39' E 009°31'0 0.0
2016-Dec-04 12:31N 53°39' E 009°31'0 0.0
2016-Dec-04 11:31N 53°39' E 009°31'0 0.0
2016-Dec-04 10:31N 53°39' E 009°31'0 0.0
2016-Dec-04 09:31N 53°39' E 009°31'0 0.0
2016-Dec-04 08:31N 53°39' E 009°31'0 0.0
2016-Dec-04 07:31N 53°39' E 009°31'0 0.0
2016-Dec-04 06:31N 53°39' E 009°31'0 0.0
2016-Dec-04 05:31N 53°39' E 009°31'0 0.0
2016-Dec-04 04:31N 53°39' E 009°31'0 0.0
2016-Dec-04 03:31N 53°39' E 009°31'0 0.0
2016-Dec-04 02:31N 53°39' E 009°31'4 4.4
2016-Dec-04 01:33N 53°43' E 009°28'1313.0
2016-Dec-04 00:34N 53°53' E 009°13'1313.4
2016-Dec-03 23:34N 53°50' E 008°51'1312.2
2016-Dec-03 22:30N 53°58' E 008°33'1212.6
2016-Dec-03 21:33N 53°59' E 008°13'1211.9
2016-Dec-03 20:32N 53°57' E 007°52'5410.3
2016-Dec-03 15:19N 53°44' E 006°24'810.1
2016-Dec-03 14:33N 53°42' E 006°11'9410.3
2016-Dec-03 05:25N 52°43' E 004°08'1011.5
2016-Dec-03 04:33N 52°36' E 004°18'1111.0
2016-Dec-03 03:34N 52°28' E 004°31'4 4.1
2016-Dec-03 02:33N 52°28' E 004°38'7 7.4
2016-Dec-03 01:33N 52°25' E 004°49'0 0.1
2016-Dec-03 00:32N 52°25' E 004°49'0 0.0
2016-Dec-02 23:29N 52°25' E 004°49'0 0.0
2016-Dec-02 22:32N 52°25' E 004°49'0 0.0
2016-Dec-02 21:26N 52°25' E 004°49'0 0.0
2016-Dec-02 20:32N 52°25' E 004°49'0 0.0
2016-Dec-02 19:32N 52°25' E 004°49'0 0.0
2016-Dec-02 18:32N 52°25' E 004°49'0 0.0
2016-Dec-02 17:26N 52°25' E 004°49'0 0.0
2016-Dec-02 16:32N 52°25' E 004°49'535545.1
2016-Dec-02 15:33N 61°20' E 004°19'5 5.1
2016-Dec-02 14:33N 61°25' E 004°22'5 5.0
2016-Dec-02 13:31N 61°30' E 004°25'5 4.9
2016-Dec-02 12:32N 61°34' E 004°28'549563.5
2016-Dec-02 11:34N 52°26' E 004°47'7 7.3
2016-Dec-02 10:33N 52°28' E 004°36'5 4.5
2016-Dec-02 09:33N 52°28' E 004°28'8 8.0
2016-Dec-02 08:33N 52°29' E 004°15'7 6.5
2016-Dec-02 07:33N 52°33' E 004°07'7 6.9
2016-Dec-02 06:33N 52°39' E 004°01'562560.4
2016-Dec-02 05:33N 62°01' E 004°45'3 2.8
2016-Dec-02 04:33N 62°03' E 004°47'3 2.5
2016-Dec-02 03:33N 62°06' E 004°49'3 2.9
2016-Dec-02 02:32N 62°08' E 004°52'3 3.2
2016-Dec-02 01:33N 62°11' E 004°55'4 3.5
2016-Dec-02 00:33N 62°14' E 004°58'3 3.5
2016-Dec-01 23:33N 62°17' E 005°02'3 3.4
2016-Dec-01 22:33N 62°20' E 005°06'3 3.3
2016-Dec-01 21:32N 62°23' E 005°11'4 3.9
2016-Dec-01 20:33N 62°25' E 005°17'4 4.4
2016-Dec-01 19:33N 62°28' E 005°23'4 4.5
2016-Dec-01 18:33N 62°32' E 005°30'15 4.6
2016-Dec-01 15:13N 62°43' E 005°54'3 4.7
2016-Dec-01 14:33N 62°45' E 005°58'4 3.6
2016-Dec-01 13:33N 62°47' E 006°04'5 5.3
2016-Dec-01 12:34N 62°51' E 006°11'9 4.4
2016-Dec-01 10:33N 62°58' E 006°25'4 3.9
2016-Dec-01 09:33N 63°00' E 006°31'4 4.2
2016-Dec-01 08:33N 63°03' E 006°38'4 4.5
2016-Dec-01 07:33N 63°05' E 006°46'4 3.5
2016-Dec-01 06:32N 63°08' E 006°53'3 3.0
2016-Dec-01 05:33N 63°09' E 006°58'4 3.7
2016-Dec-01 04:33N 63°11' E 007°06'3 3.5
2016-Dec-01 03:33N 63°12' E 007°13'4 4.1
2016-Dec-01 02:33N 63°13' E 007°21'3 3.3
2016-Dec-01 01:33N 63°15' E 007°28'3 3.4
2016-Dec-01 00:33N 63°15' E 007°36'4 3.9
2016-Nov-30 23:33N 63°14' E 007°44'5 5.0
2016-Nov-30 22:34N 63°13' E 007°55'6 5.9
2016-Nov-30 21:33N 63°16' E 008°07'6 5.9
2016-Nov-30 20:32N 63°19' E 008°17'6 6.1
2016-Nov-30 19:33N 63°23' E 008°28'6 5.9
2016-Nov-30 18:33N 63°26' E 008°39'6 5.8
2016-Nov-30 17:33N 63°28' E 008°52'6 6.0
2016-Nov-30 16:33N 63°30' E 009°05'5 5.6
2016-Nov-30 15:33N 63°32' E 009°15'6 6.0
2016-Nov-30 14:33N 63°35' E 009°27'336317.9
2016-Nov-30 13:29N 58°25' E 004°60'9 9.8
2016-Nov-30 12:33N 58°34' E 004°56'9 9.5
2016-Nov-30 11:33N 58°43' E 004°53'9 9.3
2016-Nov-30 10:33N 58°52' E 004°50'9 9.3
2016-Nov-30 09:33N 59°02' E 004°46'323322.2
2016-Nov-30 08:33N 63°37' E 010°37'7 7.3
2016-Nov-30 07:32N 63°42' E 010°50'7 7.2
2016-Nov-30 06:33N 63°47' E 011°01'8 7.8
2016-Nov-30 05:33N 63°55' E 011°04'4 4.0
2016-Nov-30 04:32N 63°59' E 011°06'0 0.0
2016-Nov-30 03:32N 63°59' E 011°06'0 0.0
2016-Nov-30 02:31N 63°59' E 011°06'0 0.0
2016-Nov-30 01:34N 63°59' E 011°06'0 0.0
2016-Nov-30 00:33N 63°59' E 011°06'0 0.0
2016-Nov-29 23:33N 63°59' E 011°06'0 0.0
2016-Nov-29 22:32N 63°59' E 011°06'0 0.0
2016-Nov-29 21:30N 63°59' E 011°06'0 0.0
2016-Nov-29 20:33N 63°59' E 011°06'0 0.0
2016-Nov-29 19:33N 63°59' E 011°06'0 0.0
2016-Nov-29 18:33N 63°59' E 011°06'0 0.0
2016-Nov-29 17:32N 63°59' E 011°06'0 0.0
2016-Nov-29 16:32N 63°59' E 011°06'0 0.0
2016-Nov-29 15:33N 63°59' E 011°06'0 0.0
2016-Nov-29 14:31N 63°59' E 011°06'0 0.0
2016-Nov-29 13:32N 63°59' E 011°06'0 0.0
2016-Nov-29 12:30N 63°59' E 011°06'0 0.0
2016-Nov-29 11:29N 63°59' E 011°06'0 0.0
2016-Nov-29 10:32N 63°59' E 011°06'0 0.0
2016-Nov-29 09:33N 63°59' E 011°06'203204.3
2016-Nov-29 08:33N 62°08' E 004°51'5 4.8
2016-Nov-29 07:33N 62°12' E 004°56'5 5.1
2016-Nov-29 06:33N 62°17' E 005°01'5 5.0
2016-Nov-29 05:33N 62°21' E 005°07'5 5.1
2016-Nov-29 04:33N 62°25' E 005°15'6 5.7
2016-Nov-29 03:33N 62°29' E 005°24'6 6.1
2016-Nov-29 02:33N 62°33' E 005°33'6 5.6
2016-Nov-29 01:33N 62°37' E 005°42'6 6.0
2016-Nov-29 00:33N 62°41' E 005°51'161150.9
2016-Nov-28 23:29N 63°59' E 011°06'0 0.0
2016-Nov-28 22:32N 63°59' E 011°06'0 0.0
2016-Nov-28 21:33N 63°59' E 011°06'0 0.0
2016-Nov-28 20:30N 63°59' E 011°06'0 0.0
2016-Nov-28 19:33N 63°59' E 011°06'0 0.0
2016-Nov-28 18:32N 63°59' E 011°06'121122.9
2016-Nov-28 17:33N 63°09' E 006°59'5 5.3
2016-Nov-28 16:33N 63°11' E 007°10'6 5.5
2016-Nov-28 15:33N 63°13' E 007°21'5 5.1
2016-Nov-28 14:33N 63°15' E 007°32'6 5.8
2016-Nov-28 13:33N 63°14' E 007°45'8 7.7
2016-Nov-28 12:34N 63°15' E 008°02'9796.2
2016-Nov-28 11:33N 64°01' E 011°14'0 0.0
2016-Nov-28 10:31N 64°01' E 011°14'0 0.0
2016-Nov-28 09:33N 64°01' E 011°14'6262.0
2016-Nov-28 08:34N 63°32' E 009°12'9 9.1
2016-Nov-28 07:33N 63°36' E 009°30'8 7.8
2016-Nov-28 06:32N 63°38' E 009°47'10 9.7
2016-Nov-28 05:34N 63°30' E 009°55'9 9.1
2016-Nov-28 04:33N 63°31' E 010°15'1010.2
2016-Nov-28 03:33N 63°37' E 010°35'1010.4
2016-Nov-28 02:33N 63°43' E 010°54'2019.8
2016-Nov-28 01:31N 64°01' E 011°14'0 0.0
2016-Nov-28 00:32N 64°01' E 011°14'0 0.1
2016-Nov-27 23:32N 64°01' E 011°14'0 0.0
2016-Nov-27 22:33N 64°01' E 011°14'0 0.0
2016-Nov-27 21:30N 64°01' E 011°14'0 0.0
2016-Nov-27 20:33N 64°01' E 011°14'0 0.0
2016-Nov-27 19:34N 64°01' E 011°14'  
Track history (hours):
 
Tides and Currents Weather Stations Pressure Air Temp Water Temp Dewpoint Dewpoint Depression Visibility Wind Speed Wind Dir Waves Ship Positions

Wilson Gaeta

Last reported at 2016-Dec-07 19:33 UTC. Time now 2016-Dec-07 20:23 UTC.
Position N 52°00' E 004°01'.

Length 88 m; draft 5.4 m.

Type: Ship. MMSI: 314237000.

Date/timePositionNaut miles runAvg speedWind from/ knotsBaromVisibWave heightAir tempDewpointWater temp
2016-Dec-07 19:33N 52°00' E 004°01'4 4.1
2016-Dec-07 18:33N 51°57' E 004°05'0 0.1
2016-Dec-07 17:33N 51°57' E 004°05'0 0.0
2016-Dec-07 16:30N 51°57' E 004°05'0 0.0
2016-Dec-07 15:34N 51°57' E 004°05'0 0.0
2016-Dec-07 14:33N 51°57' E 004°05'0 0.0
2016-Dec-07 13:33N 51°57' E 004°05'0 0.0
2016-Dec-07 12:33N 51°57' E 004°05'0 0.0
2016-Dec-07 11:33N 51°57' E 004°05'0 0.0
2016-Dec-07 10:33N 51°57' E 004°05'0 0.0
2016-Dec-07 09:33N 51°57' E 004°05'0 0.0
2016-Dec-07 08:33N 51°57' E 004°05'0 0.0
2016-Dec-07 07:33N 51°57' E 004°05'0 0.0
2016-Dec-07 06:33N 51°57' E 004°05'0 0.0
2016-Dec-07 05:33N 51°57' E 004°05'0 0.0
2016-Dec-07 04:33N 51°57' E 004°05'5 4.6
2016-Dec-07 03:34N 51°56' E 004°12'1010.1
2016-Dec-07 02:34N 51°50' E 004°25'8 8.4
2016-Dec-07 01:34N 51°48' E 004°38'0 0.0
2016-Dec-07 00:33N 51°48' E 004°38'0 0.0
2016-Dec-06 23:33N 51°48' E 004°38'0 0.0
2016-Dec-06 22:33N 51°48' E 004°38'0 0.0
2016-Dec-06 21:34N 51°48' E 004°38'0 0.0
2016-Dec-06 20:34N 51°48' E 004°38'0 0.0
2016-Dec-06 18:34N 51°48' E 004°38'0 0.0
2016-Dec-06 17:34N 51°48' E 004°38'0 0.0
2016-Dec-06 16:34N 51°48' E 004°38'0 0.0
2016-Dec-06 15:33N 51°48' E 004°38'0 0.0
2016-Dec-06 14:34N 51°48' E 004°38'0 0.0
2016-Dec-06 13:34N 51°48' E 004°38'0 0.0
2016-Dec-06 12:34N 51°48' E 004°38'0 0.0
2016-Dec-06 11:34N 51°48' E 004°38'0 0.0
2016-Dec-06 10:33N 51°48' E 004°38'0 0.0
2016-Dec-06 09:34N 51°48' E 004°38'0 0.2
2016-Dec-06 08:34N 51°48' E 004°38'7 7.0
2016-Dec-06 07:34N 51°50' E 004°27'10 9.5
2016-Dec-06 06:33N 51°55' E 004°14'1010.5
2016-Dec-06 05:34N 51°60' E 003°59'8 8.4
2016-Dec-06 04:34N 52°04' E 003°47'9 8.9
2016-Dec-06 03:33N 52°13' E 003°46'11 9.8
2016-Dec-06 02:27N 52°23' E 003°48'1110.1
2016-Dec-06 01:22N 52°34' E 003°52'910.2
2016-Dec-06 00:31N 52°43' E 003°55'1210.6
2016-Dec-05 23:23N 52°54' E 003°59'8 9.8
2016-Dec-05 22:33N 53°01' E 004°07'10 9.7
2016-Dec-05 21:34N 53°07' E 004°20'9 8.9
2016-Dec-05 20:33N 53°14' E 004°28'9 8.7
2016-Dec-05 19:33N 53°22' E 004°34'9 8.9
2016-Dec-05 18:32N 53°29' E 004°44'1110.6
2016-Dec-05 17:31N 53°34' E 005°01'4310.9
2016-Dec-05 13:31N 53°47' E 006°10'22 9.3
2016-Dec-05 11:12N 53°53' E 006°45'6 9.2
2016-Dec-05 10:30N 53°55' E 006°56'9 9.4
2016-Dec-05 09:33N 53°57' E 007°10'1410.3
2016-Dec-05 08:09N 54°00' E 007°34'710.8
2016-Dec-05 07:33N 54°02' E 007°45'1111.0
2016-Dec-05 06:33N 54°01' E 008°04'1212.0
2016-Dec-05 05:33N 53°60' E 008°24'1111.2
2016-Dec-05 04:33N 53°55' E 008°41'8 8.3
2016-Dec-05 03:33N 53°51' E 008°53'8 7.9
2016-Dec-05 02:34N 53°53' E 009°06'7 7.1
2016-Dec-05 01:34N 53°52' E 009°18'8 8.1
2016-Dec-05 00:33N 53°45' E 009°25'7 6.3
2016-Dec-04 23:31N 53°39' E 009°31'0 0.0
2016-Dec-04 22:31N 53°39' E 009°31'0 0.0
2016-Dec-04 21:31N 53°39' E 009°31'0 0.0
2016-Dec-04 20:31N 53°39' E 009°31'0 0.0
2016-Dec-04 19:31N 53°39' E 009°31'0 0.0
2016-Dec-04 18:31N 53°39' E 009°31'0 0.0
2016-Dec-04 17:31N 53°39' E 009°31'0 0.0
2016-Dec-04 16:31N 53°39' E 009°31'0 0.0
2016-Dec-04 15:31N 53°39' E 009°31'0 0.0
2016-Dec-04 14:31N 53°39' E 009°31'0 0.0
2016-Dec-04 13:31N 53°39' E 009°31'0 0.0
2016-Dec-04 12:31N 53°39' E 009°31'0 0.0
2016-Dec-04 11:31N 53°39' E 009°31'0 0.0
2016-Dec-04 10:31N 53°39' E 009°31'0 0.0
2016-Dec-04 09:31N 53°39' E 009°31'0 0.0
2016-Dec-04 08:31N 53°39' E 009°31'0 0.0
2016-Dec-04 07:31N 53°39' E 009°31'0 0.0
2016-Dec-04 06:31N 53°39' E 009°31'0 0.0
2016-Dec-04 05:31N 53°39' E 009°31'0 0.0
2016-Dec-04 04:31N 53°39' E 009°31'0 0.0
2016-Dec-04 03:31N 53°39' E 009°31'0 0.0
2016-Dec-04 02:31N 53°39' E 009°31'4 4.4
2016-Dec-04 01:33N 53°43' E 009°28'1313.0
2016-Dec-04 00:34N 53°53' E 009°13'1313.4
2016-Dec-03 23:34N 53°50' E 008°51'1312.2
2016-Dec-03 22:30N 53°58' E 008°33'1212.6
2016-Dec-03 21:33N 53°59' E 008°13'1211.9
2016-Dec-03 20:32N 53°57' E 007°52'5410.3
2016-Dec-03 15:19N 53°44' E 006°24'810.1
2016-Dec-03 14:33N 53°42' E 006°11'9410.3
2016-Dec-03 05:25N 52°43' E 004°08'1011.5
2016-Dec-03 04:33N 52°36' E 004°18'1111.0
2016-Dec-03 03:34N 52°28' E 004°31'4 4.1
2016-Dec-03 02:33N 52°28' E 004°38'7 7.4
2016-Dec-03 01:33N 52°25' E 004°49'0 0.1
2016-Dec-03 00:32N 52°25' E 004°49'0 0.0
2016-Dec-02 23:29N 52°25' E 004°49'0 0.0
2016-Dec-02 22:32N 52°25' E 004°49'0 0.0
2016-Dec-02 21:26N 52°25' E 004°49'0 0.0
2016-Dec-02 20:32N 52°25' E 004°49'0 0.0
2016-Dec-02 19:32N 52°25' E 004°49'0 0.0
2016-Dec-02 18:32N 52°25' E 004°49'0 0.0
2016-Dec-02 17:26N 52°25' E 004°49'0 0.0
2016-Dec-02 16:32N 52°25' E 004°49'535545.1
2016-Dec-02 15:33N 61°20' E 004°19'5 5.1
2016-Dec-02 14:33N 61°25' E 004°22'5 5.0
2016-Dec-02 13:31N 61°30' E 004°25'5 4.9
2016-Dec-02 12:32N 61°34' E 004°28'549563.5
2016-Dec-02 11:34N 52°26' E 004°47'7 7.3
2016-Dec-02 10:33N 52°28' E 004°36'5 4.5
2016-Dec-02 09:33N 52°28' E 004°28'8 8.0
2016-Dec-02 08:33N 52°29' E 004°15'7 6.5
2016-Dec-02 07:33N 52°33' E 004°07'7 6.9
2016-Dec-02 06:33N 52°39' E 004°01'562560.4
2016-Dec-02 05:33N 62°01' E 004°45'3 2.8
2016-Dec-02 04:33N 62°03' E 004°47'3 2.5
2016-Dec-02 03:33N 62°06' E 004°49'3 2.9
2016-Dec-02 02:32N 62°08' E 004°52'3 3.2
2016-Dec-02 01:33N 62°11' E 004°55'4 3.5
2016-Dec-02 00:33N 62°14' E 004°58'3 3.5
2016-Dec-01 23:33N 62°17' E 005°02'3 3.4
2016-Dec-01 22:33N 62°20' E 005°06'3 3.3
2016-Dec-01 21:32N 62°23' E 005°11'4 3.9
2016-Dec-01 20:33N 62°25' E 005°17'4 4.4
2016-Dec-01 19:33N 62°28' E 005°23'4 4.5
2016-Dec-01 18:33N 62°32' E 005°30'15 4.6
2016-Dec-01 15:13N 62°43' E 005°54'3 4.7
2016-Dec-01 14:33N 62°45' E 005°58'4 3.6
2016-Dec-01 13:33N 62°47' E 006°04'5 5.3
2016-Dec-01 12:34N 62°51' E 006°11'9 4.4
2016-Dec-01 10:33N 62°58' E 006°25'4 3.9
2016-Dec-01 09:33N 63°00' E 006°31'4 4.2
2016-Dec-01 08:33N 63°03' E 006°38'4 4.5
2016-Dec-01 07:33N 63°05' E 006°46'4 3.5
2016-Dec-01 06:32N 63°08' E 006°53'3 3.0
2016-Dec-01 05:33N 63°09' E 006°58'4 3.7
2016-Dec-01 04:33N 63°11' E 007°06'3 3.5
2016-Dec-01 03:33N 63°12' E 007°13'4 4.1
2016-Dec-01 02:33N 63°13' E 007°21'3 3.3
2016-Dec-01 01:33N 63°15' E 007°28'3 3.4
2016-Dec-01 00:33N 63°15' E 007°36'4 3.9
2016-Nov-30 23:33N 63°14' E 007°44'5 5.0
2016-Nov-30 22:34N 63°13' E 007°55'6 5.9
2016-Nov-30 21:33N 63°16' E 008°07'6 5.9
2016-Nov-30 20:32N 63°19' E 008°17'6 6.1
2016-Nov-30 19:33N 63°23' E 008°28'6 5.9
2016-Nov-30 18:33N 63°26' E 008°39'6 5.8
2016-Nov-30 17:33N 63°28' E 008°52'6 6.0
2016-Nov-30 16:33N 63°30' E 009°05'5 5.6
2016-Nov-30 15:33N 63°32' E 009°15'6 6.0
2016-Nov-30 14:33N 63°35' E 009°27'336317.9
2016-Nov-30 13:29N 58°25' E 004°60'9 9.8
2016-Nov-30 12:33N 58°34' E 004°56'9 9.5
2016-Nov-30 11:33N 58°43' E 004°53'9 9.3
2016-Nov-30 10:33N 58°52' E 004°50'9 9.3
2016-Nov-30 09:33N 59°02' E 004°46'323322.2
2016-Nov-30 08:33N 63°37' E 010°37'7 7.3
2016-Nov-30 07:32N 63°42' E 010°50'7 7.2
2016-Nov-30 06:33N 63°47' E 011°01'8 7.8
2016-Nov-30 05:33N 63°55' E 011°04'4 4.0
2016-Nov-30 04:32N 63°59' E 011°06'0 0.0
2016-Nov-30 03:32N 63°59' E 011°06'0 0.0
2016-Nov-30 02:31N 63°59' E 011°06'0 0.0
2016-Nov-30 01:34N 63°59' E 011°06'0 0.0
2016-Nov-30 00:33N 63°59' E 011°06'0 0.0
2016-Nov-29 23:33N 63°59' E 011°06'0 0.0
2016-Nov-29 22:32N 63°59' E 011°06'0 0.0
2016-Nov-29 21:30N 63°59' E 011°06'0 0.0
2016-Nov-29 20:33N 63°59' E 011°06'0 0.0
2016-Nov-29 19:33N 63°59' E 011°06'0 0.0
2016-Nov-29 18:33N 63°59' E 011°06'0 0.0
2016-Nov-29 17:32N 63°59' E 011°06'0 0.0
2016-Nov-29 16:32N 63°59' E 011°06'0 0.0
2016-Nov-29 15:33N 63°59' E 011°06'0 0.0
2016-Nov-29 14:31N 63°59' E 011°06'0 0.0
2016-Nov-29 13:32N 63°59' E 011°06'0 0.0
2016-Nov-29 12:30N 63°59' E 011°06'0 0.0
2016-Nov-29 11:29N 63°59' E 011°06'0 0.0
2016-Nov-29 10:32N 63°59' E 011°06'0 0.0
2016-Nov-29 09:33N 63°59' E 011°06'203204.3
2016-Nov-29 08:33N 62°08' E 004°51'5 4.8
2016-Nov-29 07:33N 62°12' E 004°56'5 5.1
2016-Nov-29 06:33N 62°17' E 005°01'5 5.0
2016-Nov-29 05:33N 62°21' E 005°07'5 5.1
2016-Nov-29 04:33N 62°25' E 005°15'6 5.7
2016-Nov-29 03:33N 62°29' E 005°24'6 6.1
2016-Nov-29 02:33N 62°33' E 005°33'6 5.6
2016-Nov-29 01:33N 62°37' E 005°42'6 6.0
2016-Nov-29 00:33N 62°41' E 005°51'161150.9
2016-Nov-28 23:29N 63°59' E 011°06'0 0.0
2016-Nov-28 22:32N 63°59' E 011°06'0 0.0
2016-Nov-28 21:33N 63°59' E 011°06'0 0.0
2016-Nov-28 20:30N 63°59' E 011°06'0 0.0
2016-Nov-28 19:33N 63°59' E 011°06'0 0.0
2016-Nov-28 18:32N 63°59' E 011°06'121122.9
2016-Nov-28 17:33N 63°09' E 006°59'5 5.3
2016-Nov-28 16:33N 63°11' E 007°10'6 5.5
2016-Nov-28 15:33N 63°13' E 007°21'5 5.1
2016-Nov-28 14:33N 63°15' E 007°32'6 5.8
2016-Nov-28 13:33N 63°14' E 007°45'8 7.7
2016-Nov-28 12:34N 63°15' E 008°02'9796.2
2016-Nov-28 11:33N 64°01' E 011°14'0 0.0
2016-Nov-28 10:31N 64°01' E 011°14'0 0.0
2016-Nov-28 09:33N 64°01' E 011°14'6262.0
2016-Nov-28 08:34N 63°32' E 009°12'9 9.1
2016-Nov-28 07:33N 63°36' E 009°30'8 7.8
2016-Nov-28 06:32N 63°38' E 009°47'10 9.7
2016-Nov-28 05:34N 63°30' E 009°55'9 9.1
2016-Nov-28 04:33N 63°31' E 010°15'1010.2
2016-Nov-28 03:33N 63°37' E 010°35'1010.4
2016-Nov-28 02:33N 63°43' E 010°54'2019.8
2016-Nov-28 01:31N 64°01' E 011°14'0 0.0
2016-Nov-28 00:32N 64°01' E 011°14'0 0.1
2016-Nov-27 23:32N 64°01' E 011°14'0 0.0
2016-Nov-27 22:33N 64°01' E 011°14'0 0.0
2016-Nov-27 21:30N 64°01' E 011°14'0 0.0
2016-Nov-27 20:33N 64°01' E 011°14'0 0.0
2016-Nov-27 19:34N 64°01' E 011°14'  

Dump ship's entire track history